sensor_id;sensor_type;location;lat;lon;timestamp;P1;durP1;ratioP1;P2;durP2;ratioP2
43710;SDS011;29309;42.682;23.372;2022-12-07T00:02:15;23.92;;;12.40;;
43710;SDS011;29309;42.682;23.372;2022-12-07T00:04:41;28.42;;;12.18;;
43710;SDS011;29309;42.682;23.372;2022-12-07T00:07:06;33.22;;;12.70;;
43710;SDS011;29309;42.682;23.372;2022-12-07T00:09:31;55.33;;;16.05;;
43710;SDS011;29309;42.682;23.372;2022-12-07T00:11:57;27.73;;;13.00;;
43710;SDS011;29309;42.682;23.372;2022-12-07T00:14:22;25.85;;;11.73;;
43710;SDS011;29309;42.682;23.372;2022-12-07T00:16:48;24.88;;;12.88;;
43710;SDS011;29309;42.682;23.372;2022-12-07T00:19:15;29.13;;;12.82;;
43710;SDS011;29309;42.682;23.372;2022-12-07T00:21:41;31.73;;;11.77;;
43710;SDS011;29309;42.682;23.372;2022-12-07T00:24:07;27.27;;;12.70;;
43710;SDS011;29309;42.682;23.372;2022-12-07T00:26:34;28.70;;;12.13;;
43710;SDS011;29309;42.682;23.372;2022-12-07T00:29:03;28.75;;;12.38;;
43710;SDS011;29309;42.682;23.372;2022-12-07T00:31:31;25.50;;;12.20;;
43710;SDS011;29309;42.682;23.372;2022-12-07T00:33:58;30.17;;;12.15;;
43710;SDS011;29309;42.682;23.372;2022-12-07T00:36:25;40.33;;;14.00;;
43710;SDS011;29309;42.682;23.372;2022-12-07T00:38:50;31.13;;;12.75;;
43710;SDS011;29309;42.682;23.372;2022-12-07T00:41:17;29.08;;;12.57;;
43710;SDS011;29309;42.682;23.372;2022-12-07T00:43:45;30.90;;;12.45;;
43710;SDS011;29309;42.682;23.372;2022-12-07T00:46:12;26.08;;;12.55;;
43710;SDS011;29309;42.682;23.372;2022-12-07T00:48:39;27.63;;;12.07;;
43710;SDS011;29309;42.682;23.372;2022-12-07T00:51:05;25.20;;;11.57;;
43710;SDS011;29309;42.682;23.372;2022-12-07T00:53:30;34.05;;;13.18;;
43710;SDS011;29309;42.682;23.372;2022-12-07T00:56:04;29.65;;;13.48;;
43710;SDS011;29309;42.682;23.372;2022-12-07T00:58:33;31.98;;;13.25;;
43710;SDS011;29309;42.682;23.372;2022-12-07T01:01:02;26.48;;;13.15;;
43710;SDS011;29309;42.682;23.372;2022-12-07T01:03:29;30.67;;;12.45;;
43710;SDS011;29309;42.682;23.372;2022-12-07T01:05:55;29.00;;;12.70;;
43710;SDS011;29309;42.682;23.372;2022-12-07T01:08:21;29.30;;;13.02;;
43710;SDS011;29309;42.682;23.372;2022-12-07T01:10:48;32.25;;;13.80;;
43710;SDS011;29309;42.682;23.372;2022-12-07T01:13:14;32.10;;;13.63;;
43710;SDS011;29309;42.682;23.372;2022-12-07T01:15:40;28.70;;;13.38;;
43710;SDS011;29309;42.682;23.372;2022-12-07T01:18:09;34.38;;;13.98;;
43710;SDS011;29309;42.682;23.372;2022-12-07T01:20:35;36.35;;;12.88;;
43710;SDS011;29309;42.682;23.372;2022-12-07T01:23:01;33.25;;;13.93;;
43710;SDS011;29309;42.682;23.372;2022-12-07T01:25:27;33.80;;;13.98;;
43710;SDS011;29309;42.682;23.372;2022-12-07T01:27:53;29.08;;;12.90;;
43710;SDS011;29309;42.682;23.372;2022-12-07T01:30:18;32.40;;;14.25;;
43710;SDS011;29309;42.682;23.372;2022-12-07T01:32:43;35.83;;;15.85;;
43710;SDS011;29309;42.682;23.372;2022-12-07T01:35:09;34.40;;;15.18;;
43710;SDS011;29309;42.682;23.372;2022-12-07T01:37:38;36.28;;;16.02;;
43710;SDS011;29309;42.682;23.372;2022-12-07T01:40:04;28.80;;;13.88;;
43710;SDS011;29309;42.682;23.372;2022-12-07T01:42:31;40.42;;;15.27;;
43710;SDS011;29309;42.682;23.372;2022-12-07T01:48:00;33.15;;;15.88;;
43710;SDS011;29309;42.682;23.372;2022-12-07T01:50:27;37.25;;;16.45;;
43710;SDS011;29309;42.682;23.372;2022-12-07T01:52:53;38.75;;;16.70;;
43710;SDS011;29309;42.682;23.372;2022-12-07T01:55:22;32.15;;;14.25;;
43710;SDS011;29309;42.682;23.372;2022-12-07T01:57:49;34.35;;;15.48;;
43710;SDS011;29309;42.682;23.372;2022-12-07T02:00:17;40.05;;;15.70;;
43710;SDS011;29309;42.682;23.372;2022-12-07T02:02:46;36.80;;;16.20;;
43710;SDS011;29309;42.682;23.372;2022-12-07T02:05:22;33.25;;;15.88;;
43710;SDS011;29309;42.682;23.372;2022-12-07T02:07:50;36.38;;;15.73;;
43710;SDS011;29309;42.682;23.372;2022-12-07T02:10:18;31.58;;;15.82;;
43710;SDS011;29309;42.682;23.372;2022-12-07T02:12:46;35.65;;;15.20;;
43710;SDS011;29309;42.682;23.372;2022-12-07T02:15:15;37.28;;;16.88;;
43710;SDS011;29309;42.682;23.372;2022-12-07T02:18:05;40.75;;;15.95;;
43710;SDS011;29309;42.682;23.372;2022-12-07T02:20:56;33.60;;;15.60;;
43710;SDS011;29309;42.682;23.372;2022-12-07T02:26:04;35.38;;;15.30;;
43710;SDS011;29309;42.682;23.372;2022-12-07T02:29:00;34.72;;;15.50;;
43710;SDS011;29309;42.682;23.372;2022-12-07T02:31:29;38.35;;;16.55;;
43710;SDS011;29309;42.682;23.372;2022-12-07T02:34:18;38.67;;;16.10;;
43710;SDS011;29309;42.682;23.372;2022-12-07T02:36:55;35.67;;;15.93;;
43710;SDS011;29309;42.682;23.372;2022-12-07T02:39:29;32.42;;;15.10;;
43710;SDS011;29309;42.682;23.372;2022-12-07T02:45:00;37.85;;;15.25;;
43710;SDS011;29309;42.682;23.372;2022-12-07T02:47:28;30.85;;;14.27;;
43710;SDS011;29309;42.682;23.372;2022-12-07T02:49:56;32.95;;;15.32;;
43710;SDS011;29309;42.682;23.372;2022-12-07T02:52:22;33.60;;;14.23;;
43710;SDS011;29309;42.682;23.372;2022-12-07T02:54:47;34.10;;;14.25;;
43710;SDS011;29309;42.682;23.372;2022-12-07T02:57:21;28.95;;;14.30;;
43710;SDS011;29309;42.682;23.372;2022-12-07T03:00:09;31.10;;;14.02;;
43710;SDS011;29309;42.682;23.372;2022-12-07T03:02:48;27.75;;;14.23;;
43710;SDS011;29309;42.682;23.372;2022-12-07T03:10:56;26.25;;;13.20;;
43710;SDS011;29309;42.682;23.372;2022-12-07T03:13:29;27.42;;;13.02;;
43710;SDS011;29309;42.682;23.372;2022-12-07T03:18:42;28.85;;;12.90;;
43710;SDS011;29309;42.682;23.372;2022-12-07T03:21:14;33.08;;;16.17;;
43710;SDS011;29309;42.682;23.372;2022-12-07T03:23:44;29.88;;;11.95;;
43710;SDS011;29309;42.682;23.372;2022-12-07T03:26:14;32.33;;;13.70;;
43710;SDS011;29309;42.682;23.372;2022-12-07T03:28:44;27.35;;;12.05;;
43710;SDS011;29309;42.682;23.372;2022-12-07T03:31:21;26.08;;;13.63;;
43710;SDS011;29309;42.682;23.372;2022-12-07T03:36:25;28.30;;;13.00;;
43710;SDS011;29309;42.682;23.372;2022-12-07T03:38:55;36.95;;;13.68;;
43710;SDS011;29309;42.682;23.372;2022-12-07T03:41:29;29.27;;;12.55;;
43710;SDS011;29309;42.682;23.372;2022-12-07T03:43:56;28.90;;;14.20;;
43710;SDS011;29309;42.682;23.372;2022-12-07T03:54:59;26.90;;;12.13;;
43710;SDS011;29309;42.682;23.372;2022-12-07T03:57:31;25.90;;;13.10;;
43710;SDS011;29309;42.682;23.372;2022-12-07T03:59:59;32.33;;;14.25;;
43710;SDS011;29309;42.682;23.372;2022-12-07T04:02:26;26.67;;;13.65;;
43710;SDS011;29309;42.682;23.372;2022-12-07T04:04:52;29.60;;;14.55;;
43710;SDS011;29309;42.682;23.372;2022-12-07T04:07:18;30.77;;;15.35;;
43710;SDS011;29309;42.682;23.372;2022-12-07T04:09:44;38.70;;;15.55;;
43710;SDS011;29309;42.682;23.372;2022-12-07T04:12:09;33.78;;;15.85;;
43710;SDS011;29309;42.682;23.372;2022-12-07T04:14:35;35.70;;;16.92;;
43710;SDS011;29309;42.682;23.372;2022-12-07T04:17:00;33.42;;;15.45;;
43710;SDS011;29309;42.682;23.372;2022-12-07T04:19:27;35.15;;;16.02;;
43710;SDS011;29309;42.682;23.372;2022-12-07T04:21:55;38.47;;;15.77;;
43710;SDS011;29309;42.682;23.372;2022-12-07T04:24:21;35.67;;;14.75;;
43710;SDS011;29309;42.682;23.372;2022-12-07T04:26:47;28.27;;;14.00;;
43710;SDS011;29309;42.682;23.372;2022-12-07T04:29:13;33.15;;;15.90;;
43710;SDS011;29309;42.682;23.372;2022-12-07T04:31:40;40.05;;;15.98;;
43710;SDS011;29309;42.682;23.372;2022-12-07T04:34:06;31.63;;;13.52;;
43710;SDS011;29309;42.682;23.372;2022-12-07T04:36:32;35.17;;;14.18;;
43710;SDS011;29309;42.682;23.372;2022-12-07T04:38:58;35.92;;;15.15;;
43710;SDS011;29309;42.682;23.372;2022-12-07T04:41:25;30.40;;;15.27;;
43710;SDS011;29309;42.682;23.372;2022-12-07T04:43:58;34.67;;;15.05;;
43710;SDS011;29309;42.682;23.372;2022-12-07T04:46:25;33.50;;;16.48;;
43710;SDS011;29309;42.682;23.372;2022-12-07T04:48:52;35.83;;;14.77;;
43710;SDS011;29309;42.682;23.372;2022-12-07T04:51:20;38.30;;;16.17;;
43710;SDS011;29309;42.682;23.372;2022-12-07T04:53:50;39.78;;;15.80;;
43710;SDS011;29309;42.682;23.372;2022-12-07T04:56:17;38.70;;;15.20;;
43710;SDS011;29309;42.682;23.372;2022-12-07T04:58:43;30.85;;;14.57;;
43710;SDS011;29309;42.682;23.372;2022-12-07T05:01:10;32.65;;;14.40;;
43710;SDS011;29309;42.682;23.372;2022-12-07T05:03:36;33.97;;;15.95;;
43710;SDS011;29309;42.682;23.372;2022-12-07T05:06:02;43.80;;;17.05;;
43710;SDS011;29309;42.682;23.372;2022-12-07T05:08:27;39.78;;;16.83;;
43710;SDS011;29309;42.682;23.372;2022-12-07T05:10:53;36.20;;;14.75;;
43710;SDS011;29309;42.682;23.372;2022-12-07T05:13:18;39.17;;;16.20;;
43710;SDS011;29309;42.682;23.372;2022-12-07T05:15:44;29.83;;;15.52;;
43710;SDS011;29309;42.682;23.372;2022-12-07T05:18:10;31.38;;;14.45;;
43710;SDS011;29309;42.682;23.372;2022-12-07T05:20:38;36.75;;;15.32;;
43710;SDS011;29309;42.682;23.372;2022-12-07T05:23:04;37.55;;;16.05;;
43710;SDS011;29309;42.682;23.372;2022-12-07T05:25:29;35.75;;;15.95;;
43710;SDS011;29309;42.682;23.372;2022-12-07T05:27:55;32.15;;;14.93;;
43710;SDS011;29309;42.682;23.372;2022-12-07T05:30:21;37.75;;;18.00;;
43710;SDS011;29309;42.682;23.372;2022-12-07T05:32:48;37.65;;;18.05;;
43710;SDS011;29309;42.682;23.372;2022-12-07T05:35:13;34.17;;;16.70;;
43710;SDS011;29309;42.682;23.372;2022-12-07T05:37:39;38.70;;;17.85;;
43710;SDS011;29309;42.682;23.372;2022-12-07T05:40:04;35.45;;;16.67;;
43710;SDS011;29309;42.682;23.372;2022-12-07T05:42:31;34.38;;;15.73;;
43710;SDS011;29309;42.682;23.372;2022-12-07T05:44:56;40.83;;;15.45;;
43710;SDS011;29309;42.682;23.372;2022-12-07T05:47:22;36.10;;;16.17;;
43710;SDS011;29309;42.682;23.372;2022-12-07T05:49:47;32.42;;;15.73;;
43710;SDS011;29309;42.682;23.372;2022-12-07T05:52:13;35.22;;;15.65;;
43710;SDS011;29309;42.682;23.372;2022-12-07T05:54:38;37.05;;;15.52;;
43710;SDS011;29309;42.682;23.372;2022-12-07T05:57:04;32.17;;;14.73;;
43710;SDS011;29309;42.682;23.372;2022-12-07T05:59:29;46.67;;;16.98;;
43710;SDS011;29309;42.682;23.372;2022-12-07T06:01:59;37.38;;;15.30;;
43710;SDS011;29309;42.682;23.372;2022-12-07T06:04:34;36.42;;;16.15;;
43710;SDS011;29309;42.682;23.372;2022-12-07T06:07:01;41.55;;;16.10;;
43710;SDS011;29309;42.682;23.372;2022-12-07T06:09:28;39.85;;;16.40;;
43710;SDS011;29309;42.682;23.372;2022-12-07T06:11:54;41.20;;;15.82;;
43710;SDS011;29309;42.682;23.372;2022-12-07T06:14:39;36.03;;;15.98;;
43710;SDS011;29309;42.682;23.372;2022-12-07T06:17:04;36.22;;;16.88;;
43710;SDS011;29309;42.682;23.372;2022-12-07T06:19:30;40.58;;;16.80;;
43710;SDS011;29309;42.682;23.372;2022-12-07T06:21:55;37.00;;;17.10;;
43710;SDS011;29309;42.682;23.372;2022-12-07T06:24:21;36.45;;;15.25;;
43710;SDS011;29309;42.682;23.372;2022-12-07T06:26:47;37.10;;;15.77;;
43710;SDS011;29309;42.682;23.372;2022-12-07T06:29:13;31.08;;;16.40;;
43710;SDS011;29309;42.682;23.372;2022-12-07T06:31:39;36.10;;;16.67;;
43710;SDS011;29309;42.682;23.372;2022-12-07T06:34:06;39.50;;;17.60;;
43710;SDS011;29309;42.682;23.372;2022-12-07T06:36:34;43.60;;;19.40;;
43710;SDS011;29309;42.682;23.372;2022-12-07T06:38:59;39.97;;;18.45;;
43710;SDS011;29309;42.682;23.372;2022-12-07T06:41:25;37.67;;;17.25;;
43710;SDS011;29309;42.682;23.372;2022-12-07T06:43:51;39.92;;;16.67;;
43710;SDS011;29309;42.682;23.372;2022-12-07T06:46:16;32.13;;;16.23;;
43710;SDS011;29309;42.682;23.372;2022-12-07T06:48:42;42.42;;;16.23;;
43710;SDS011;29309;42.682;23.372;2022-12-07T06:51:09;40.40;;;16.30;;
43710;SDS011;29309;42.682;23.372;2022-12-07T06:53:35;45.00;;;18.27;;
43710;SDS011;29309;42.682;23.372;2022-12-07T06:56:01;35.63;;;16.95;;
43710;SDS011;29309;42.682;23.372;2022-12-07T06:58:26;57.50;;;18.77;;
43710;SDS011;29309;42.682;23.372;2022-12-07T07:00:52;43.20;;;18.63;;
43710;SDS011;29309;42.682;23.372;2022-12-07T07:03:18;44.45;;;18.58;;
43710;SDS011;29309;42.682;23.372;2022-12-07T07:05:44;43.47;;;18.92;;
43710;SDS011;29309;42.682;23.372;2022-12-07T07:08:10;39.28;;;20.25;;
43710;SDS011;29309;42.682;23.372;2022-12-07T07:10:36;45.75;;;19.50;;
43710;SDS011;29309;42.682;23.372;2022-12-07T07:13:02;48.53;;;20.77;;
43710;SDS011;29309;42.682;23.372;2022-12-07T07:15:27;44.00;;;18.02;;
43710;SDS011;29309;42.682;23.372;2022-12-07T07:17:53;40.97;;;18.63;;
43710;SDS011;29309;42.682;23.372;2022-12-07T07:20:18;35.40;;;17.85;;
43710;SDS011;29309;42.682;23.372;2022-12-07T07:22:44;32.85;;;15.40;;
43710;SDS011;29309;42.682;23.372;2022-12-07T07:25:10;34.42;;;16.60;;
43710;SDS011;29309;42.682;23.372;2022-12-07T07:27:35;38.47;;;15.25;;
43710;SDS011;29309;42.682;23.372;2022-12-07T07:30:00;39.63;;;18.65;;
43710;SDS011;29309;42.682;23.372;2022-12-07T07:32:26;50.58;;;19.98;;
43710;SDS011;29309;42.682;23.372;2022-12-07T07:34:51;41.55;;;18.65;;
43710;SDS011;29309;42.682;23.372;2022-12-07T07:37:17;37.90;;;18.60;;
43710;SDS011;29309;42.682;23.372;2022-12-07T07:39:42;46.55;;;20.52;;
43710;SDS011;29309;42.682;23.372;2022-12-07T07:42:08;44.30;;;21.20;;
43710;SDS011;29309;42.682;23.372;2022-12-07T07:44:33;47.45;;;23.02;;
43710;SDS011;29309;42.682;23.372;2022-12-07T07:47:00;50.30;;;23.20;;
43710;SDS011;29309;42.682;23.372;2022-12-07T07:49:25;45.55;;;23.23;;
43710;SDS011;29309;42.682;23.372;2022-12-07T07:51:51;51.30;;;23.38;;
43710;SDS011;29309;42.682;23.372;2022-12-07T07:54:17;54.60;;;28.40;;
43710;SDS011;29309;42.682;23.372;2022-12-07T07:56:42;76.45;;;35.47;;
43710;SDS011;29309;42.682;23.372;2022-12-07T07:59:07;73.38;;;36.00;;
43710;SDS011;29309;42.682;23.372;2022-12-07T08:01:33;72.53;;;32.47;;
43710;SDS011;29309;42.682;23.372;2022-12-07T08:03:59;52.13;;;29.25;;
43710;SDS011;29309;42.682;23.372;2022-12-07T08:06:24;59.90;;;28.83;;
43710;SDS011;29309;42.682;23.372;2022-12-07T08:08:50;56.28;;;26.40;;
43710;SDS011;29309;42.682;23.372;2022-12-07T08:11:15;56.78;;;26.00;;
43710;SDS011;29309;42.682;23.372;2022-12-07T08:13:41;48.30;;;25.10;;
43710;SDS011;29309;42.682;23.372;2022-12-07T08:16:07;48.38;;;25.67;;
43710;SDS011;29309;42.682;23.372;2022-12-07T08:18:37;45.50;;;22.75;;
43710;SDS011;29309;42.682;23.372;2022-12-07T08:21:04;44.10;;;23.52;;
43710;SDS011;29309;42.682;23.372;2022-12-07T08:23:31;63.22;;;29.30;;
43710;SDS011;29309;42.682;23.372;2022-12-07T08:26:00;72.80;;;33.10;;
43710;SDS011;29309;42.682;23.372;2022-12-07T08:28:27;52.03;;;26.13;;
43710;SDS011;29309;42.682;23.372;2022-12-07T08:30:58;65.28;;;25.27;;
43710;SDS011;29309;42.682;23.372;2022-12-07T08:33:24;47.88;;;24.10;;
43710;SDS011;29309;42.682;23.372;2022-12-07T08:35:50;55.03;;;23.98;;
43710;SDS011;29309;42.682;23.372;2022-12-07T08:38:15;48.17;;;24.17;;
43710;SDS011;29309;42.682;23.372;2022-12-07T08:40:40;50.53;;;23.80;;
43710;SDS011;29309;42.682;23.372;2022-12-07T08:43:06;40.58;;;22.23;;
43710;SDS011;29309;42.682;23.372;2022-12-07T08:45:31;49.35;;;23.85;;
43710;SDS011;29309;42.682;23.372;2022-12-07T08:48:04;56.05;;;24.85;;
43710;SDS011;29309;42.682;23.372;2022-12-07T08:50:33;59.75;;;25.65;;
43710;SDS011;29309;42.682;23.372;2022-12-07T08:53:00;48.30;;;24.00;;
43710;SDS011;29309;42.682;23.372;2022-12-07T08:55:27;65.10;;;25.83;;
43710;SDS011;29309;42.682;23.372;2022-12-07T08:57:54;51.42;;;23.08;;
43710;SDS011;29309;42.682;23.372;2022-12-07T09:00:20;47.05;;;25.33;;
43710;SDS011;29309;42.682;23.372;2022-12-07T09:02:45;51.65;;;23.40;;
43710;SDS011;29309;42.682;23.372;2022-12-07T09:05:11;58.90;;;25.52;;
43710;SDS011;29309;42.682;23.372;2022-12-07T09:07:39;44.35;;;22.17;;
43710;SDS011;29309;42.682;23.372;2022-12-07T09:10:07;49.00;;;23.02;;
43710;SDS011;29309;42.682;23.372;2022-12-07T09:12:32;41.03;;;21.23;;
43710;SDS011;29309;42.682;23.372;2022-12-07T09:14:58;44.65;;;22.67;;
43710;SDS011;29309;42.682;23.372;2022-12-07T09:17:25;40.75;;;21.00;;
43710;SDS011;29309;42.682;23.372;2022-12-07T09:19:51;41.38;;;19.35;;
43710;SDS011;29309;42.682;23.372;2022-12-07T09:22:17;41.13;;;20.33;;
43710;SDS011;29309;42.682;23.372;2022-12-07T09:24:42;43.63;;;19.90;;
43710;SDS011;29309;42.682;23.372;2022-12-07T09:27:09;42.47;;;20.77;;
43710;SDS011;29309;42.682;23.372;2022-12-07T09:29:34;38.85;;;20.33;;
43710;SDS011;29309;42.682;23.372;2022-12-07T09:32:00;45.22;;;20.40;;
43710;SDS011;29309;42.682;23.372;2022-12-07T09:34:25;45.20;;;20.45;;
43710;SDS011;29309;42.682;23.372;2022-12-07T09:36:51;44.15;;;20.67;;
43710;SDS011;29309;42.682;23.372;2022-12-07T09:39:17;34.97;;;18.95;;
43710;SDS011;29309;42.682;23.372;2022-12-07T09:41:43;47.75;;;19.80;;
43710;SDS011;29309;42.682;23.372;2022-12-07T09:44:10;44.53;;;21.13;;
43710;SDS011;29309;42.682;23.372;2022-12-07T09:46:39;46.05;;;20.90;;
43710;SDS011;29309;42.682;23.372;2022-12-07T09:49:20;46.65;;;20.33;;
43710;SDS011;29309;42.682;23.372;2022-12-07T09:51:47;42.08;;;19.85;;
43710;SDS011;29309;42.682;23.372;2022-12-07T09:54:24;52.63;;;21.77;;
43710;SDS011;29309;42.682;23.372;2022-12-07T09:56:49;45.00;;;21.05;;
43710;SDS011;29309;42.682;23.372;2022-12-07T09:59:16;38.10;;;20.60;;
43710;SDS011;29309;42.682;23.372;2022-12-07T10:01:43;44.30;;;20.75;;
43710;SDS011;29309;42.682;23.372;2022-12-07T10:04:13;48.33;;;21.52;;
43710;SDS011;29309;42.682;23.372;2022-12-07T10:06:40;41.92;;;18.70;;
43710;SDS011;29309;42.682;23.372;2022-12-07T10:09:16;50.40;;;20.52;;
43710;SDS011;29309;42.682;23.372;2022-12-07T10:12:03;37.45;;;18.73;;
43710;SDS011;29309;42.682;23.372;2022-12-07T10:14:32;40.55;;;17.30;;
43710;SDS011;29309;42.682;23.372;2022-12-07T10:16:59;33.50;;;17.58;;
43710;SDS011;29309;42.682;23.372;2022-12-07T10:19:27;36.45;;;18.45;;
43710;SDS011;29309;42.682;23.372;2022-12-07T10:22:14;36.20;;;18.80;;
43710;SDS011;29309;42.682;23.372;2022-12-07T10:24:42;34.25;;;17.58;;
43710;SDS011;29309;42.682;23.372;2022-12-07T10:27:22;50.83;;;20.15;;
43710;SDS011;29309;42.682;23.372;2022-12-07T10:29:54;41.15;;;19.30;;
43710;SDS011;29309;42.682;23.372;2022-12-07T10:35:18;31.63;;;17.10;;
43710;SDS011;29309;42.682;23.372;2022-12-07T10:37:49;33.83;;;17.88;;
43710;SDS011;29309;42.682;23.372;2022-12-07T10:40:26;37.08;;;17.17;;
43710;SDS011;29309;42.682;23.372;2022-12-07T10:43:05;33.85;;;17.30;;
43710;SDS011;29309;42.682;23.372;2022-12-07T10:57:19;33.63;;;15.43;;
43710;SDS011;29309;42.682;23.372;2022-12-07T11:00:01;25.73;;;13.63;;
43710;SDS011;29309;42.682;23.372;2022-12-07T11:08:39;30.10;;;13.38;;
43710;SDS011;29309;42.682;23.372;2022-12-07T11:28:11;24.48;;;13.25;;
43710;SDS011;29309;42.682;23.372;2022-12-07T11:31:03;44.38;;;12.88;;
43710;SDS011;29309;42.682;23.372;2022-12-07T11:36:37;26.98;;;12.18;;
43710;SDS011;29309;42.682;23.372;2022-12-07T11:42:06;29.63;;;11.95;;
43710;SDS011;29309;42.682;23.372;2022-12-07T11:44:42;20.90;;;11.25;;
43710;SDS011;29309;42.682;23.372;2022-12-07T11:52:27;28.85;;;12.27;;
43710;SDS011;29309;42.682;23.372;2022-12-07T11:54:55;23.95;;;11.60;;
43710;SDS011;29309;42.682;23.372;2022-12-07T11:57:34;20.92;;;10.38;;
43710;SDS011;29309;42.682;23.372;2022-12-07T12:00:12;28.15;;;10.52;;
43710;SDS011;29309;42.682;23.372;2022-12-07T12:02:44;17.60;;;9.20;;
43710;SDS011;29309;42.682;23.372;2022-12-07T12:05:24;24.13;;;11.10;;
43710;SDS011;29309;42.682;23.372;2022-12-07T12:07:59;21.75;;;9.85;;
43710;SDS011;29309;42.682;23.372;2022-12-07T12:10:52;23.85;;;11.77;;
43710;SDS011;29309;42.682;23.372;2022-12-07T12:13:34;18.08;;;11.07;;
43710;SDS011;29309;42.682;23.372;2022-12-07T12:20:04;24.17;;;10.77;;
43710;SDS011;29309;42.682;23.372;2022-12-07T12:22:35;25.83;;;11.93;;
43710;SDS011;29309;42.682;23.372;2022-12-07T12:25:05;24.48;;;11.35;;
43710;SDS011;29309;42.682;23.372;2022-12-07T12:27:40;24.25;;;12.68;;
43710;SDS011;29309;42.682;23.372;2022-12-07T12:30:24;27.70;;;11.75;;
43710;SDS011;29309;42.682;23.372;2022-12-07T12:32:50;30.70;;;10.50;;
43710;SDS011;29309;42.682;23.372;2022-12-07T12:38:23;22.60;;;10.98;;
43710;SDS011;29309;42.682;23.372;2022-12-07T12:40:50;25.48;;;11.02;;
43710;SDS011;29309;42.682;23.372;2022-12-07T12:51:41;27.92;;;11.05;;
43710;SDS011;29309;42.682;23.372;2022-12-07T12:59:26;23.13;;;10.23;;
43710;SDS011;29309;42.682;23.372;2022-12-07T13:02:46;24.48;;;11.02;;
43710;SDS011;29309;42.682;23.372;2022-12-07T13:05:00;18.60;;;9.98;;
43710;SDS011;29309;42.682;23.372;2022-12-07T13:12:59;22.80;;;9.93;;
43710;SDS011;29309;42.682;23.372;2022-12-07T13:15:47;20.10;;;9.57;;
43710;SDS011;29309;42.682;23.372;2022-12-07T13:25:54;19.70;;;10.18;;
43710;SDS011;29309;42.682;23.372;2022-12-07T13:28:26;24.05;;;9.88;;
43710;SDS011;29309;42.682;23.372;2022-12-07T13:33:49;23.10;;;10.18;;
43710;SDS011;29309;42.682;23.372;2022-12-07T13:36:18;21.65;;;9.75;;
43710;SDS011;29309;42.682;23.372;2022-12-07T13:38:51;23.77;;;9.95;;
43710;SDS011;29309;42.682;23.372;2022-12-07T13:41:59;21.27;;;9.45;;
43710;SDS011;29309;42.682;23.372;2022-12-07T13:44:27;21.33;;;10.30;;
43710;SDS011;29309;42.682;23.372;2022-12-07T13:47:01;21.80;;;10.45;;
43710;SDS011;29309;42.682;23.372;2022-12-07T13:49:49;17.85;;;9.52;;
43710;SDS011;29309;42.682;23.372;2022-12-07T13:54:59;25.80;;;11.88;;
43710;SDS011;29309;42.682;23.372;2022-12-07T13:57:39;24.15;;;11.18;;
43710;SDS011;29309;42.682;23.372;2022-12-07T14:00:06;25.15;;;10.48;;
43710;SDS011;29309;42.682;23.372;2022-12-07T14:02:57;27.25;;;10.15;;
43710;SDS011;29309;42.682;23.372;2022-12-07T14:05:28;22.80;;;10.82;;
43710;SDS011;29309;42.682;23.372;2022-12-07T14:08:00;24.10;;;9.73;;
43710;SDS011;29309;42.682;23.372;2022-12-07T14:10:30;22.88;;;10.00;;
43710;SDS011;29309;42.682;23.372;2022-12-07T14:13:01;24.50;;;10.82;;
43710;SDS011;29309;42.682;23.372;2022-12-07T14:15:29;22.40;;;10.85;;
43710;SDS011;29309;42.682;23.372;2022-12-07T14:17:58;22.02;;;10.52;;
43710;SDS011;29309;42.682;23.372;2022-12-07T14:20:29;26.15;;;10.45;;
43710;SDS011;29309;42.682;23.372;2022-12-07T14:22:58;25.08;;;10.65;;
43710;SDS011;29309;42.682;23.372;2022-12-07T14:25:24;41.70;;;13.68;;
43710;SDS011;29309;42.682;23.372;2022-12-07T14:28:00;30.67;;;10.63;;
43710;SDS011;29309;42.682;23.372;2022-12-07T14:32:54;20.33;;;9.55;;
43710;SDS011;29309;42.682;23.372;2022-12-07T14:35:25;26.70;;;10.00;;
43710;SDS011;29309;42.682;23.372;2022-12-07T14:37:51;29.30;;;11.60;;
43710;SDS011;29309;42.682;23.372;2022-12-07T14:40:21;26.65;;;10.55;;
43710;SDS011;29309;42.682;23.372;2022-12-07T14:43:01;31.83;;;11.27;;
43710;SDS011;29309;42.682;23.372;2022-12-07T14:45:28;20.92;;;10.60;;
43710;SDS011;29309;42.682;23.372;2022-12-07T14:47:54;24.77;;;10.15;;
43710;SDS011;29309;42.682;23.372;2022-12-07T14:50:20;26.52;;;11.30;;
43710;SDS011;29309;42.682;23.372;2022-12-07T14:52:47;28.90;;;11.38;;
43710;SDS011;29309;42.682;23.372;2022-12-07T14:55:23;26.30;;;10.70;;
43710;SDS011;29309;42.682;23.372;2022-12-07T14:57:51;22.00;;;10.48;;
43710;SDS011;29309;42.682;23.372;2022-12-07T15:00:17;28.23;;;11.82;;
43710;SDS011;29309;42.682;23.372;2022-12-07T15:02:44;25.55;;;11.25;;
43710;SDS011;29309;42.682;23.372;2022-12-07T15:05:10;29.85;;;12.35;;
43710;SDS011;29309;42.682;23.372;2022-12-07T15:07:36;27.08;;;12.05;;
43710;SDS011;29309;42.682;23.372;2022-12-07T15:10:02;25.25;;;10.15;;
43710;SDS011;29309;42.682;23.372;2022-12-07T15:12:28;31.50;;;12.07;;
43710;SDS011;29309;42.682;23.372;2022-12-07T15:14:53;21.05;;;11.05;;
43710;SDS011;29309;42.682;23.372;2022-12-07T15:17:19;34.13;;;13.30;;
43710;SDS011;29309;42.682;23.372;2022-12-07T15:19:44;31.10;;;14.10;;
43710;SDS011;29309;42.682;23.372;2022-12-07T15:22:10;51.45;;;14.57;;
43710;SDS011;29309;42.682;23.372;2022-12-07T15:24:36;35.85;;;15.38;;
43710;SDS011;29309;42.682;23.372;2022-12-07T15:27:02;34.80;;;14.68;;
43710;SDS011;29309;42.682;23.372;2022-12-07T15:29:27;31.63;;;15.27;;
43710;SDS011;29309;42.682;23.372;2022-12-07T15:31:53;35.08;;;14.55;;
43710;SDS011;29309;42.682;23.372;2022-12-07T15:34:19;41.88;;;15.10;;
43710;SDS011;29309;42.682;23.372;2022-12-07T15:36:44;33.70;;;15.75;;
43710;SDS011;29309;42.682;23.372;2022-12-07T15:39:09;30.30;;;13.93;;
43710;SDS011;29309;42.682;23.372;2022-12-07T15:41:35;36.95;;;13.93;;
43710;SDS011;29309;42.682;23.372;2022-12-07T15:44:00;27.70;;;12.82;;
43710;SDS011;29309;42.682;23.372;2022-12-07T15:46:44;27.88;;;12.55;;
43710;SDS011;29309;42.682;23.372;2022-12-07T15:49:11;31.88;;;14.32;;
43710;SDS011;29309;42.682;23.372;2022-12-07T15:51:42;32.00;;;14.48;;
43710;SDS011;29309;42.682;23.372;2022-12-07T15:54:12;36.35;;;14.95;;
43710;SDS011;29309;42.682;23.372;2022-12-07T15:56:40;35.22;;;14.02;;
43710;SDS011;29309;42.682;23.372;2022-12-07T15:59:06;40.92;;;13.88;;
43710;SDS011;29309;42.682;23.372;2022-12-07T16:01:31;49.35;;;20.20;;
43710;SDS011;29309;42.682;23.372;2022-12-07T16:03:57;53.53;;;19.70;;
43710;SDS011;29309;42.682;23.372;2022-12-07T16:06:23;56.63;;;20.23;;
43710;SDS011;29309;42.682;23.372;2022-12-07T16:08:49;57.97;;;17.63;;
43710;SDS011;29309;42.682;23.372;2022-12-07T16:11:14;36.70;;;15.77;;
43710;SDS011;29309;42.682;23.372;2022-12-07T16:13:40;40.63;;;16.60;;
43710;SDS011;29309;42.682;23.372;2022-12-07T16:16:06;41.90;;;17.83;;
43710;SDS011;29309;42.682;23.372;2022-12-07T16:18:34;49.03;;;18.65;;